Terminal Aerodrome Forecast
Issued by NWS Green Bay, WI

Current Version | Previous Version | Text Only | Print | Product List | Glossary On
Versions: 1 2 3 4 5 6 7 8 9 10 11 12 13
000
FTUS43 KGRB 211130
TAFGRB
TAF
KGRB 211130Z 2112/2212 18007KT P6SM BKN250 WS019/21035KT
     FM211500 18012G21KT P6SM SCT250
     FM212200 17012G17KT P6SM SCT120 WS020/21040KT
     FM220000 17011KT P6SM SCT080 WS020/21045KT
     FM220600 18010KT P6SM BKN050 WS020/21045KT PROB30 2208/2212
      -SHRA=

USA.gov is the U.S. government's official web portal to all federal, state and local government web resources and services.